KNKT

Cherry Point MCAS / Cunningham Field / Airport

Cherry Point, North Carolina, USA
METAR KNKT 212254Z 21008KT 4SM TS FEW055 SCT090 BKN110 26/24 A2978 RMK AO2 SLP081 T02560239 $
Observed Flight Rules
Jun-21 @ 22:54 UTC (an hour ago) Marginal Visual Flight Rules
Wind Visibility Clouds Conditions
210° at 8 knots 4 miles
  • Few at 5,500' AGL
  • Scattered at 9,000' AGL
  • Broken at 11,000' AGL
  • Thunderstorm
Temperatures Readings
Current 26°C / 79°F
Dewpoint 24°C / 75°F
Humidity 89%
Altimeter 29.78" Hg
Pressure 1008.1 hPa
Elevation 9
METAR KNKT 212254Z 21008KT 4SM TS FEW055 SCT090 BKN110 26/24 A2978 RMK AO2 SLP081 T02560239 $
Observed Flight Rules
Jun-21 @ 22:54 UTC
(an hour ago)
MVFR
Wind Visibility
210° at 8 knots 4 miles
Clouds
  • Few at 5,500' AGL
  • Scattered at 9,000' AGL
  • Broken at 11,000' AGL
Conditions
  • Thunderstorm
Temperature Dewpoint
26°C / 79°F 24°C / 75°F
Humidity Altimeter Pressure
89% 29.78" Hg 1008.1 hPa